»·PEaware :: N314PW KSNA-KSNA

N314PW :: KSNA-KSNA

FLIGHT INFORMATION

Flight Status: Arrived
Operator: Privately registered:
United States
More flights under this callsign
Pilot: Todd P. (5750)
Aircraft: BEECH AIRCRAFT BONANZA
(BE36)
More flights by this aircraft type
Origin: KSNA John Wayne-Orange Co
United States
Destination: KSNA John Wayne-Orange Co
United States
More flights between these airports :: More routes between these airports
Route: +SLI
File this flight plan on PilotEdge
Remarks:
Altitude:
(Current/Filed)
3,500ft
Speed:
(Current/Filed)
120kts
Departed: 01-Jul-15 12:20 PM
Arrived: 01-Jul-15 01:27 PM
Distance/Time
Traveled:
0nm/1:07
Distance/Time
To Go:
Arrived

Flight Plot

Page will automatically refresh every two minutes.


Map Options




Map Legend


Flown Route
Filed Route
Departure Airport
Arrival Airport
Navaid (VOR, NDB)
Fix

Horizontal Profiles

Position Reports

Time Latitude Longitude Heading Altitude Ground
Speed
01-Jul-15 12:09 33.670888 -117.867577 32 60ft 0kts
01-Jul-15 12:10 33.670888 -117.867577 32 60ft 0kts
01-Jul-15 12:11 33.670888 -117.867577 32 60ft 0kts
01-Jul-15 12:12 33.670888 -117.867577 32 60ft 0kts
01-Jul-15 12:13 33.670888 -117.867577 32 60ft 0kts
01-Jul-15 12:14 33.673342 -117.867067 20 60ft 14kts
01-Jul-15 12:15 33.676939 -117.865331 28 60ft 18kts
01-Jul-15 12:16 33.679964 -117.863654 298 60ft 0kts
01-Jul-15 12:17 33.679964 -117.863654 298 60ft 0kts
01-Jul-15 12:18 33.679964 -117.863654 298 60ft 0kts
01-Jul-15 12:19 33.677590 -117.865739 208 60ft 71kts
01-Jul-15 12:20 33.653451 -117.876425 191 1141ft 96kts
01-Jul-15 12:21 33.645425 -117.852065 92 2432ft 95kts
01-Jul-15 12:22 33.641288 -117.820910 103 3480ft 105kts
01-Jul-15 12:23 33.627115 -117.783789 158 3543ft 153kts
01-Jul-15 12:24 33.585401 -117.788548 197 3497ft 151kts
01-Jul-15 12:25 33.548616 -117.777258 155 3507ft 139kts
01-Jul-15 12:26 33.513262 -117.763036 165 3492ft 133kts
01-Jul-15 12:27 33.486628 -117.777379 128 3530ft 120kts
01-Jul-15 12:28 33.458725 -117.783047 226 3499ft 122kts
01-Jul-15 12:29 33.471804 -117.800912 58 3548ft 125kts
01-Jul-15 12:30 33.451309 -117.782211 197 3589ft 128kts
01-Jul-15 12:31 33.421436 -117.792313 193 3830ft 109kts
01-Jul-15 12:32 33.393375 -117.801504 193 4354ft 104kts
01-Jul-15 12:33 33.363652 -117.812382 199 4520ft 128kts
01-Jul-15 12:34 33.331088 -117.809186 122 4254ft 133kts
01-Jul-15 12:35 33.347577 -117.781172 15 3464ft 131kts
01-Jul-15 12:36 33.380133 -117.768428 42 3723ft 120kts
01-Jul-15 12:37 33.367859 -117.748130 224 4454ft 128kts
01-Jul-15 12:38 33.386991 -117.761177 16 4487ft 122kts
01-Jul-15 12:39 33.415701 -117.743959 81 4544ft 125kts
01-Jul-15 12:40 33.398582 -117.745656 300 4507ft 128kts
01-Jul-15 12:41 33.425526 -117.758511 263 4546ft 126kts
01-Jul-15 12:42 33.409462 -117.747850 49 4535ft 129kts
01-Jul-15 12:43 33.442014 -117.735998 12 4534ft 120kts
01-Jul-15 12:44 33.440164 -117.709639 191 3924ft 128kts
01-Jul-15 12:45 33.406053 -117.721538 199 3470ft 123kts
01-Jul-15 12:46 33.400542 -117.756609 286 3686ft 119kts
01-Jul-15 12:47 33.408266 -117.795283 287 4511ft 124kts
01-Jul-15 12:48 33.390653 -117.816484 138 4452ft 125kts
01-Jul-15 12:49 33.383509 -117.783602 107 4229ft 128kts
01-Jul-15 12:50 33.374207 -117.741867 105 3507ft 119kts
01-Jul-15 12:51 33.388659 -117.718834 315 4268ft 131kts
01-Jul-15 12:52 33.398182 -117.757856 292 4560ft 122kts
01-Jul-15 12:53 33.434657 -117.753315 22 3515ft 122kts
01-Jul-15 12:54 33.456998 -117.764075 277 3546ft 122kts
01-Jul-15 12:55 33.431126 -117.783679 197 3520ft 120kts
01-Jul-15 12:56 33.406066 -117.791957 189 3219ft 104kts
01-Jul-15 12:57 33.381361 -117.797331 194 3271ft 88kts
01-Jul-15 12:58 33.357500 -117.805531 195 3409ft 99kts
01-Jul-15 12:59 33.333295 -117.814199 198 4388ft 81kts
01-Jul-15 13:00 33.308340 -117.824961 200 4559ft 99kts
01-Jul-15 13:01 33.284822 -117.839351 271 4487ft 118kts
01-Jul-15 13:02 33.313832 -117.852625 348 4038ft 121kts
01-Jul-15 13:03 33.346609 -117.864960 304 3499ft 130kts
01-Jul-15 13:04 33.323403 -117.876041 165 3521ft 121kts
01-Jul-15 13:05 33.313280 -117.849044 33 4363ft 127kts
01-Jul-15 13:06 33.347070 -117.837019 23 4622ft 130kts
01-Jul-15 13:07 33.386980 -117.818680 5 3543ft 167kts
01-Jul-15 13:08 33.428105 -117.811257 9 3618ft 143kts
01-Jul-15 13:09 33.466939 -117.803470 9 3568ft 142kts
01-Jul-15 13:10 33.504806 -117.794467 14 3578ft 139kts
01-Jul-15 13:11 33.541633 -117.782506 15 3578ft 139kts
01-Jul-15 13:12 33.577182 -117.770932 15 3578ft 139kts
01-Jul-15 13:13 33.611913 -117.759612 15 3577ft 137kts
01-Jul-15 13:14 33.647736 -117.747945 15 3573ft 133kts
01-Jul-15 13:15 33.683013 -117.736445 15 3572ft 132kts
01-Jul-15 13:16 33.717739 -117.725113 15 3571ft 132kts
01-Jul-15 13:17 33.753479 -117.718481 4 3572ft 132kts
01-Jul-15 13:18 33.789672 -117.715279 4 3572ft 132kts
01-Jul-15 13:19 33.816763 -117.737641 305 3568ft 131kts
01-Jul-15 13:20 33.815698 -117.774381 228 3594ft 125kts
01-Jul-15 13:21 33.788171 -117.799155 203 3254ft 126kts
01-Jul-15 13:22 33.759312 -117.815605 205 2904ft 97kts
01-Jul-15 13:23 33.737132 -117.830279 209 1723ft 93kts
01-Jul-15 13:24 33.715271 -117.843350 210 814ft 81kts
01-Jul-15 13:25 33.694962 -117.856758 206 405ft 84kts
01-Jul-15 13:26 33.676973 -117.868020 208 60ft 28kts
01-Jul-15 13:27 33.674386 -117.868522 159 60ft 0kts
01-Jul-15 13:28 33.673231 -117.867128 212 60ft 12kts

Navigation Log

Ident Type
Flight plan parsing failed, navigation log unavailable